createdAt,value
2019-05-05T00:00:15.508Z,87.20
2019-05-05T00:03:08.906Z,87.20
2019-05-05T00:05:38.288Z,86.90
2019-05-05T00:08:06.181Z,87.60
2019-05-05T00:11:04.936Z,88.00
2019-05-05T00:13:44.905Z,88.40
2019-05-05T00:16:44.556Z,88.00
2019-05-05T00:19:12.720Z,87.90
2019-05-05T00:21:45.546Z,88.00
2019-05-05T00:24:15.148Z,88.60
2019-05-05T00:26:43.215Z,88.70
2019-05-05T00:29:12.308Z,89.20
2019-05-05T00:31:40.177Z,89.60
2019-05-05T00:34:08.117Z,89.40
2019-05-05T00:36:35.886Z,89.10
2019-05-05T00:39:06.432Z,89.30
2019-05-05T00:41:34.693Z,89.50
2019-05-05T00:44:04.609Z,88.70
2019-05-05T00:46:49.025Z,88.80
2019-05-05T00:49:17.918Z,88.40
2019-05-05T00:51:45.674Z,88.00
2019-05-05T00:54:14.878Z,88.20
2019-05-05T00:56:44.854Z,87.80
2019-05-05T00:59:14.760Z,87.20
2019-05-05T01:02:21.432Z,88.30
2019-05-05T01:05:05.530Z,87.70
2019-05-05T01:07:35.091Z,87.90
2019-05-05T01:10:04.990Z,88.20
2019-05-05T01:12:34.896Z,88.40
2019-05-05T01:15:04.548Z,89.60
2019-05-05T01:17:34.391Z,88.80
2019-05-05T01:20:06.162Z,88.50
2019-05-05T01:22:56.362Z,88.30
2019-05-05T01:25:25.339Z,89.40
2019-05-05T01:27:54.567Z,90.30
2019-05-05T01:30:26.197Z,89.20
2019-05-05T01:32:59.034Z,88.80
2019-05-05T01:35:26.765Z,88.00
2019-05-05T01:38:09.353Z,87.20
2019-05-05T01:41:04.209Z,86.00
2019-05-05T01:43:32.228Z,86.00
2019-05-05T01:46:00.052Z,85.90
2019-05-05T01:48:27.838Z,86.10
2019-05-05T01:50:55.680Z,85.70
2019-05-05T01:53:24.500Z,86.00
2019-05-05T01:55:54.231Z,87.10
2019-05-05T01:58:22.084Z,87.20
2019-05-05T02:00:50.162Z,88.00
2019-05-05T02:03:17.987Z,87.40
2019-05-05T02:05:45.775Z,88.00
2019-05-05T02:08:15.312Z,88.10
2019-05-05T02:10:45.398Z,88.30
2019-05-05T02:13:12.978Z,87.90
2019-05-05T02:15:40.771Z,88.10
2019-05-05T02:18:08.487Z,88.10
2019-05-05T02:20:49.659Z,88.10
2019-05-05T02:23:17.433Z,87.90
2019-05-05T02:25:45.895Z,87.70
2019-05-05T02:28:14.944Z,87.60
2019-05-05T02:31:05.411Z,87.70
2019-05-05T02:33:35.342Z,87.80
2019-05-05T02:36:05.264Z,87.90
2019-05-05T02:38:35.257Z,88.20
2019-05-05T02:41:04.929Z,88.00
2019-05-05T02:43:34.433Z,88.10
2019-05-05T02:46:25.450Z,88.50
2019-05-05T02:48:55.285Z,89.70
2019-05-05T02:51:25.913Z,88.90
2019-05-05T02:53:55.308Z,89.20
2019-05-05T02:56:27.922Z,90.10
2019-05-05T02:59:01.218Z,89.00
2019-05-05T03:01:47.456Z,90.00
2019-05-05T03:04:15.518Z,89.30
2019-05-05T03:06:48.227Z,89.30
2019-05-05T03:09:17.976Z,88.00
2019-05-05T03:11:54.174Z,87.20
2019-05-05T03:14:26.235Z,85.80
2019-05-05T03:16:54.604Z,84.80
2019-05-05T03:19:24.142Z,85.30
2019-05-05T03:22:43.462Z,85.00
2019-05-05T03:25:13.497Z,84.10
2019-05-05T03:27:41.354Z,84.20
2019-05-05T03:30:09.138Z,84.30
2019-05-05T03:32:37.096Z,84.80
2019-05-05T03:35:05.208Z,85.30
2019-05-05T03:37:34.328Z,85.80
2019-05-05T03:40:23.856Z,85.80
2019-05-05T03:42:59.472Z,86.50
2019-05-05T03:45:34.871Z,85.90
2019-05-05T03:48:04.475Z,86.50
2019-05-05T03:50:34.064Z,86.60
2019-05-05T03:53:01.990Z,86.00
2019-05-05T03:55:29.967Z,86.50
2019-05-05T03:57:58.260Z,86.40
2019-05-05T04:01:30.814Z,86.10
2019-05-05T04:04:19.057Z,85.50
2019-05-05T04:06:49.114Z,86.00
2019-05-05T04:09:16.838Z,86.50
2019-05-05T04:11:44.814Z,87.60
2019-05-05T04:14:14.290Z,87.60
2019-05-05T04:16:49.090Z,87.00
2019-05-05T04:19:18.160Z,87.60
2019-05-05T04:21:56.101Z,87.90
2019-05-05T04:24:23.945Z,87.70
2019-05-05T04:26:51.683Z,86.10
2019-05-05T04:29:19.396Z,85.50
2019-05-05T04:31:47.212Z,85.30
2019-05-05T04:34:15.048Z,85.50
2019-05-05T04:36:44.361Z,85.60
2019-05-05T04:39:14.334Z,85.40
2019-05-05T04:41:44.025Z,86.20
2019-05-05T04:44:11.938Z,86.00
2019-05-05T04:46:39.630Z,86.00
2019-05-05T04:49:17.437Z,85.70
2019-05-05T04:52:14.282Z,86.40
2019-05-05T04:54:47.418Z,85.60
2019-05-05T04:57:15.199Z,85.00
2019-05-05T04:59:44.452Z,83.80
2019-05-05T05:02:34.006Z,83.20
2019-05-05T05:05:10.608Z,82.60
2019-05-05T05:07:38.362Z,81.30
2019-05-05T05:10:06.708Z,81.10
2019-05-05T05:12:34.510Z,80.10
2019-05-05T05:15:04.318Z,79.30
2019-05-05T05:17:50.439Z,79.00
2019-05-05T05:20:18.210Z,77.20
2019-05-05T05:22:51.218Z,68.10
2019-05-05T05:25:18.971Z,60.00
2019-05-05T05:27:46.732Z,55.00
2019-05-05T05:30:14.899Z,50.10
2019-05-05T05:32:44.532Z,47.10
2019-05-05T05:35:14.125Z,46.70
2019-05-05T05:37:42.128Z,41.60
2019-05-05T05:40:35.397Z,41.50
2019-05-05T05:43:05.426Z,39.80
2019-05-05T05:45:41.260Z,37.90
2019-05-05T05:48:27.411Z,35.90
2019-05-05T05:50:58.404Z,34.10
2019-05-05T05:53:26.168Z,32.70
2019-05-05T05:55:55.789Z,32.50
2019-05-05T05:58:24.533Z,30.00
2019-05-05T06:00:57.834Z,29.50
2019-05-05T06:03:25.534Z,28.90
2019-05-05T06:05:54.005Z,28.40
2019-05-05T06:08:24.124Z,27.00
2019-05-05T06:10:51.841Z,27.10
2019-05-05T06:13:19.582Z,24.80
2019-05-05T06:15:47.343Z,25.30
2019-05-05T06:18:15.110Z,22.80
2019-05-05T06:20:47.901Z,22.80
2019-05-05T06:23:15.650Z,22.70
2019-05-05T06:25:44.459Z,23.00
2019-05-05T06:28:14.551Z,23.30
2019-05-05T06:30:47.521Z,21.60
2019-05-05T06:33:15.271Z,20.40
2019-05-05T06:35:44.375Z,19.30
2019-05-05T06:38:13.669Z,21.10
2019-05-05T06:41:01.494Z,22.10
2019-05-05T06:43:43.998Z,22.10
2019-05-05T06:46:14.614Z,20.30
2019-05-05T06:48:43.853Z,19.90
2019-05-05T06:51:13.928Z,19.00
2019-05-05T06:53:43.543Z,19.10
2019-05-05T06:56:11.608Z,17.80
2019-05-05T06:58:39.394Z,18.20
2019-05-05T07:01:07.210Z,17.40
2019-05-05T07:03:35.336Z,17.50
2019-05-05T07:06:04.273Z,17.70
2019-05-05T07:08:34.486Z,17.90
2019-05-05T07:11:07.498Z,17.30
2019-05-05T07:13:35.288Z,17.80
2019-05-05T07:16:04.883Z,16.40
2019-05-05T07:18:34.093Z,17.30
2019-05-05T07:21:03.635Z,16.10
2019-05-05T07:23:33.836Z,16.50
2019-05-05T07:26:01.306Z,15.90
2019-05-05T07:28:29.115Z,14.40
2019-05-05T07:30:56.879Z,14.60
2019-05-05T07:33:24.694Z,14.20
2019-05-05T07:36:14.413Z,12.90
2019-05-05T07:38:41.766Z,13.80
2019-05-05T07:41:09.673Z,13.30
2019-05-05T07:43:37.478Z,12.30
2019-05-05T07:46:05.269Z,13.10
2019-05-05T07:48:33.579Z,12.90
2019-05-05T07:51:05.063Z,14.90
2019-05-05T07:53:33.394Z,13.50
2019-05-05T07:56:01.276Z,14.10
2019-05-05T07:58:31.211Z,14.40
2019-05-05T08:00:59.030Z,15.00
2019-05-05T08:03:26.825Z,14.40
2019-05-05T08:05:54.627Z,14.10
2019-05-05T08:08:24.417Z,15.10
2019-05-05T08:10:54.164Z,12.50
2019-05-05T08:13:24.175Z,12.30
2019-05-05T08:15:59.323Z,13.20
2019-05-05T08:18:49.375Z,10.80
2019-05-05T08:21:17.665Z,12.40
2019-05-05T08:24:04.681Z,13.20
2019-05-05T08:26:41.035Z,13.30
2019-05-05T08:29:27.438Z,12.90
2019-05-05T08:32:01.675Z,13.60
2019-05-05T08:34:29.471Z,11.60
2019-05-05T08:36:59.801Z,13.90
2019-05-05T08:39:26.973Z,12.40
2019-05-05T08:41:54.795Z,13.30
2019-05-05T08:44:23.641Z,13.20
2019-05-05T08:46:53.773Z,13.30
2019-05-05T08:49:24.995Z,12.40
2019-05-05T08:51:54.689Z,11.80
2019-05-05T08:54:23.627Z,12.50
2019-05-05T08:56:51.910Z,12.50
2019-05-05T08:59:19.822Z,12.10
2019-05-05T09:01:47.827Z,12.20
2019-05-05T09:04:16.808Z,11.50
2019-05-05T09:06:45.449Z,11.10
2019-05-05T09:09:14.395Z,10.80
2019-05-05T09:11:43.736Z,11.40
2019-05-05T09:14:11.785Z,13.10
2019-05-05T09:16:39.598Z,13.20
2019-05-05T09:19:14.532Z,10.40
2019-05-05T09:21:57.316Z,11.40
2019-05-05T09:24:50.785Z,10.50
2019-05-05T09:27:28.411Z,10.60
2019-05-05T09:29:56.692Z,11.10
2019-05-05T09:32:24.479Z,10.50
2019-05-05T09:34:54.064Z,10.80
2019-05-05T09:37:22.021Z,10.80
2019-05-05T09:39:50.362Z,10.20
2019-05-05T09:42:18.833Z,9.50
2019-05-05T09:44:46.930Z,10.50
2019-05-05T09:47:15.214Z,10.10
2019-05-05T09:49:44.591Z,11.10
2019-05-05T09:52:13.971Z,11.80
2019-05-05T09:54:43.853Z,11.90
2019-05-05T09:57:14.312Z,9.60
2019-05-05T09:59:44.158Z,10.10
2019-05-05T10:02:12.480Z,11.30
2019-05-05T10:04:40.645Z,11.20
2019-05-05T10:07:08.443Z,9.90
2019-05-05T10:09:36.759Z,9.30
2019-05-05T10:12:05.009Z,10.80
2019-05-05T10:14:34.138Z,9.20
2019-05-05T10:17:04.639Z,9.80
2019-05-05T10:19:31.853Z,13.00
2019-05-05T10:21:59.829Z,9.10
2019-05-05T10:24:33.887Z,11.10
2019-05-05T10:27:02.044Z,8.20
2019-05-05T10:29:29.850Z,10.30
2019-05-05T10:32:04.591Z,9.00
2019-05-05T10:34:33.474Z,9.60
2019-05-05T10:37:01.414Z,8.70
2019-05-05T10:39:37.174Z,8.80
2019-05-05T10:42:05.080Z,8.30
2019-05-05T10:44:34.092Z,10.80
2019-05-05T10:47:04.378Z,7.60
2019-05-05T10:49:33.712Z,8.90
2019-05-05T10:52:16.678Z,7.20
2019-05-05T10:54:45.073Z,8.30
2019-05-05T10:57:14.823Z,8.70
2019-05-05T10:59:43.558Z,12.00
2019-05-05T11:02:16.610Z,14.10
2019-05-05T11:04:44.817Z,15.50
2019-05-05T11:07:14.574Z,15.50
2019-05-05T11:09:44.213Z,15.20
2019-05-05T11:12:13.713Z,13.00
2019-05-05T11:14:43.687Z,10.30
2019-05-05T11:17:11.620Z,10.80
2019-05-05T11:19:39.450Z,8.90
2019-05-05T11:22:07.251Z,10.60
2019-05-05T11:24:35.055Z,11.10
2019-05-05T11:27:04.938Z,8.70
2019-05-05T11:29:34.600Z,9.30
2019-05-05T11:32:05.862Z,10.20
2019-05-05T11:34:33.815Z,10.20
2019-05-05T11:37:14.594Z,11.10
2019-05-05T11:39:44.425Z,11.60
2019-05-05T11:42:12.216Z,14.70
2019-05-05T11:44:39.999Z,14.80
2019-05-05T11:47:07.767Z,15.50
2019-05-05T11:49:35.576Z,14.70
2019-05-05T11:52:04.624Z,13.20
2019-05-05T11:54:32.846Z,11.10
2019-05-05T11:57:00.640Z,11.60
2019-05-05T11:59:29.352Z,11.30
2019-05-05T12:01:57.941Z,12.20
2019-05-05T12:04:26.204Z,14.90
2019-05-05T12:06:54.440Z,15.70
2019-05-05T12:09:33.720Z,14.00
2019-05-05T12:12:03.800Z,14.50
2019-05-05T12:14:32.614Z,14.50
2019-05-05T12:17:01.170Z,13.70
2019-05-05T12:19:29.252Z,12.50
2019-05-05T12:21:57.061Z,12.20
2019-05-05T12:24:29.453Z,14.30
2019-05-05T12:27:20.301Z,14.30
2019-05-05T12:29:54.640Z,13.70
2019-05-05T12:32:24.123Z,15.80
2019-05-05T12:34:53.756Z,15.50
2019-05-05T12:37:23.570Z,15.70
2019-05-05T12:39:51.719Z,12.50
2019-05-05T12:42:20.133Z,11.80
2019-05-05T12:44:54.605Z,10.30
2019-05-05T12:47:36.430Z,9.40
2019-05-05T12:50:04.792Z,9.20
2019-05-05T12:52:54.755Z,11.60
2019-05-05T12:55:22.077Z,13.10
2019-05-05T12:57:49.921Z,14.10
2019-05-05T13:00:19.757Z,14.30
2019-05-05T13:02:47.485Z,13.50
2019-05-05T13:05:39.421Z,12.30
2019-05-05T13:08:07.219Z,13.50
2019-05-05T13:10:35.058Z,13.90
2019-05-05T13:13:13.994Z,15.10
2019-05-05T13:15:41.694Z,14.60
2019-05-05T13:18:09.583Z,16.20
2019-05-05T13:20:48.653Z,16.80
2019-05-05T13:23:36.078Z,17.20
2019-05-05T13:26:26.374Z,18.20
2019-05-05T13:28:54.344Z,18.50
2019-05-05T13:31:22.187Z,18.30
2019-05-05T13:33:50.064Z,18.80
2019-05-05T13:36:20.299Z,16.90
2019-05-05T13:38:48.156Z,17.60
2019-05-05T13:41:15.914Z,17.30
2019-05-05T13:43:43.693Z,17.80
2019-05-05T13:46:16.743Z,18.20
2019-05-05T13:48:44.574Z,19.20
2019-05-05T13:51:14.624Z,19.50
2019-05-05T13:53:44.595Z,19.30
2019-05-05T13:56:13.209Z,20.30
2019-05-05T13:58:43.606Z,19.20
2019-05-05T14:01:11.665Z,20.50
2019-05-05T14:03:39.553Z,19.70
2019-05-05T14:06:07.330Z,19.60
2019-05-05T14:08:36.396Z,19.00
2019-05-05T14:11:04.707Z,19.00
2019-05-05T14:13:34.167Z,18.60
2019-05-05T14:16:03.872Z,18.50
2019-05-05T14:18:31.892Z,20.50
2019-05-05T14:20:59.828Z,19.70
2019-05-05T14:23:29.121Z,19.70
2019-05-05T14:25:56.996Z,20.10
2019-05-05T14:28:24.833Z,19.30
2019-05-05T14:31:14.083Z,18.70
2019-05-05T14:33:54.698Z,20.20
2019-05-05T14:36:41.104Z,21.00
2019-05-05T14:39:10.184Z,21.80
2019-05-05T14:41:44.563Z,21.80
2019-05-05T14:44:13.441Z,21.50
2019-05-05T14:46:41.358Z,21.10
2019-05-05T14:49:09.115Z,21.50
2019-05-05T14:51:56.347Z,21.70
2019-05-05T14:54:24.112Z,21.80
2019-05-05T14:56:51.858Z,20.00
2019-05-05T14:59:19.670Z,19.70
2019-05-05T15:01:47.431Z,18.40
2019-05-05T15:04:17.567Z,19.00
2019-05-05T15:06:54.440Z,17.40
2019-05-05T15:09:28.321Z,17.00
2019-05-05T15:12:07.241Z,17.50
2019-05-05T15:14:35.056Z,17.40
2019-05-05T15:17:03.696Z,16.60
2019-05-05T15:19:31.670Z,15.40
2019-05-05T15:22:54.754Z,17.50
2019-05-05T15:25:23.460Z,18.20
2019-05-05T15:27:51.362Z,20.20
2019-05-05T15:30:19.161Z,20.30
2019-05-05T15:32:46.963Z,20.00
2019-05-05T15:35:14.899Z,19.70
2019-05-05T15:37:43.662Z,20.60
2019-05-05T15:40:14.177Z,19.80
2019-05-05T15:42:43.956Z,21.00
2019-05-05T15:45:12.036Z,19.60
2019-05-05T15:47:39.802Z,18.50
2019-05-05T15:50:08.110Z,18.30
2019-05-05T15:52:35.971Z,18.70
2019-05-05T15:55:04.585Z,18.80
2019-05-05T15:57:33.593Z,19.20
2019-05-05T16:00:01.500Z,20.20
2019-05-05T16:02:29.481Z,21.10
2019-05-05T16:04:57.244Z,21.40
2019-05-05T16:07:25.669Z,21.30
2019-05-05T16:09:53.913Z,22.10
2019-05-05T16:12:33.671Z,22.20
2019-05-05T16:15:01.724Z,22.50
2019-05-05T16:17:37.245Z,22.30
2019-05-05T16:20:13.928Z,23.10
2019-05-05T16:23:10.994Z,22.80
2019-05-05T16:25:41.678Z,23.40
2019-05-05T16:28:09.163Z,23.80
2019-05-05T16:30:36.949Z,23.00
2019-05-05T16:33:04.763Z,24.20
2019-05-05T16:35:34.254Z,24.00
2019-05-05T16:38:03.810Z,22.80
2019-05-05T16:40:33.759Z,24.10
2019-05-05T16:43:01.640Z,23.80
2019-05-05T16:45:29.456Z,25.00
2019-05-05T16:47:57.226Z,25.20
2019-05-05T16:50:25.160Z,25.00
2019-05-05T16:53:01.288Z,25.00
2019-05-05T16:55:37.119Z,25.00
2019-05-05T16:58:06.699Z,25.70
2019-05-05T17:00:35.813Z,25.90
2019-05-05T17:03:04.195Z,26.20
2019-05-05T17:05:32.181Z,25.50
2019-05-05T17:08:00.052Z,25.50
2019-05-05T17:10:27.981Z,26.70
2019-05-05T17:12:57.875Z,25.70
2019-05-05T17:15:47.380Z,25.80
2019-05-05T17:18:33.615Z,26.10
2019-05-05T17:21:21.330Z,27.10
2019-05-05T17:23:49.135Z,27.10
2019-05-05T17:26:16.906Z,27.20
2019-05-05T17:28:44.682Z,27.40
2019-05-05T17:31:12.569Z,27.60
2019-05-05T17:33:40.347Z,27.70
2019-05-05T17:36:08.313Z,28.20
2019-05-05T17:38:36.074Z,28.10
2019-05-05T17:41:23.625Z,28.20
2019-05-05T17:43:59.723Z,28.20
2019-05-05T17:46:33.612Z,28.10
2019-05-05T17:49:30.741Z,28.10
2019-05-05T17:52:14.327Z,29.40
2019-05-05T17:54:45.668Z,30.20
2019-05-05T17:57:14.266Z,30.30
2019-05-05T17:59:44.147Z,31.60
2019-05-05T18:02:12.345Z,32.40
2019-05-05T18:04:40.860Z,31.30
2019-05-05T18:07:14.281Z,32.90
2019-05-05T18:10:20.051Z,31.00
2019-05-05T18:13:26.025Z,33.30
2019-05-05T18:16:00.756Z,33.60
2019-05-05T18:18:28.637Z,34.40
2019-05-05T18:20:56.661Z,34.80
2019-05-05T18:23:24.443Z,35.60
2019-05-05T18:25:52.247Z,36.50
2019-05-05T18:28:20.313Z,36.60
2019-05-05T18:31:25.959Z,35.50
2019-05-05T18:33:54.341Z,38.20
2019-05-05T18:36:22.530Z,35.90
2019-05-05T18:38:50.385Z,36.70
2019-05-05T18:41:31.095Z,36.80
2019-05-05T18:44:08.562Z,38.40
2019-05-05T18:46:36.292Z,38.40
2019-05-05T18:49:04.419Z,38.30
2019-05-05T18:51:32.238Z,38.20
2019-05-05T18:54:00.017Z,38.30
2019-05-05T18:56:27.845Z,38.20
2019-05-05T18:58:55.625Z,38.20
2019-05-05T19:01:44.549Z,38.20
2019-05-05T19:04:21.406Z,38.20
2019-05-05T19:06:56.912Z,39.70
2019-05-05T19:09:25.079Z,39.00
2019-05-05T19:11:54.570Z,39.30
2019-05-05T19:14:24.153Z,38.10
2019-05-05T19:16:55.339Z,38.30
2019-05-05T19:19:23.704Z,39.10
2019-05-05T19:21:56.835Z,38.70
2019-05-05T19:24:24.693Z,38.30
2019-05-05T19:26:54.233Z,38.30
2019-05-05T19:29:24.172Z,39.00
2019-05-05T19:31:52.042Z,40.60
2019-05-05T19:34:19.909Z,41.20
2019-05-05T19:36:47.744Z,41.00
2019-05-05T19:39:15.627Z,40.60
2019-05-05T19:41:46.657Z,41.00
2019-05-05T19:44:14.693Z,41.80
2019-05-05T19:46:54.864Z,42.70
2019-05-05T19:49:24.195Z,41.90
2019-05-05T19:51:54.112Z,41.80
2019-05-05T19:54:21.936Z,43.00
2019-05-05T19:56:49.807Z,44.10
2019-05-05T19:59:17.611Z,43.10
2019-05-05T20:01:45.761Z,43.50
2019-05-05T20:04:14.650Z,43.50
2019-05-05T20:06:44.217Z,43.50
2019-05-05T20:09:14.136Z,43.50
2019-05-05T20:11:43.747Z,43.40
2019-05-05T20:14:11.755Z,44.00
2019-05-05T20:17:04.016Z,45.20
2019-05-05T20:19:36.324Z,45.20
2019-05-05T20:22:14.724Z,45.30
2019-05-05T20:24:44.331Z,45.80
2019-05-05T20:27:13.955Z,45.30
2019-05-05T20:29:41.946Z,44.90
2019-05-05T20:32:09.713Z,47.10
2019-05-05T20:35:06.231Z,46.60
2019-05-05T20:37:59.891Z,46.20
2019-05-05T20:40:31.394Z,46.10
2019-05-05T20:42:59.184Z,48.00
2019-05-05T20:45:28.872Z,47.20
2019-05-05T20:47:56.890Z,48.10
2019-05-05T20:50:24.798Z,47.00
2019-05-05T20:52:53.571Z,48.70
2019-05-05T20:55:21.452Z,48.60
2019-05-05T20:57:49.309Z,48.50
2019-05-05T21:00:18.052Z,49.10
2019-05-05T21:02:45.989Z,48.50
2019-05-05T21:05:14.589Z,48.90
2019-05-05T21:07:44.404Z,49.70
2019-05-05T21:10:14.361Z,49.90
2019-05-05T21:12:45.335Z,51.10
2019-05-05T21:15:13.157Z,51.60
2019-05-05T21:17:41.049Z,51.10
2019-05-05T21:20:08.970Z,52.30
2019-05-05T21:23:05.073Z,52.00
2019-05-05T21:25:35.412Z,51.50
2019-05-05T21:28:24.127Z,53.20
2019-05-05T21:30:53.980Z,54.50
2019-05-05T21:33:23.933Z,53.40
2019-05-05T21:35:51.882Z,54.00
2019-05-05T21:38:19.658Z,54.60
2019-05-05T21:40:47.615Z,54.90
2019-05-05T21:43:15.520Z,55.10
2019-05-05T21:45:44.445Z,56.10
2019-05-05T21:48:13.657Z,56.30
2019-05-05T21:50:47.253Z,57.80
2019-05-05T21:53:24.707Z,57.80
2019-05-05T21:56:00.103Z,56.90
2019-05-05T21:58:38.628Z,57.80
2019-05-05T22:01:19.387Z,56.20
2019-05-05T22:03:47.253Z,56.80
2019-05-05T22:06:14.974Z,57.60
2019-05-05T22:08:42.749Z,57.50
2019-05-05T22:11:15.492Z,58.10
2019-05-05T22:13:44.243Z,58.70
2019-05-05T22:16:13.652Z,59.80
2019-05-05T22:18:41.567Z,58.80
2019-05-05T22:21:39.205Z,59.90
2019-05-05T22:24:19.263Z,60.00
2019-05-05T22:26:47.011Z,59.70
2019-05-05T22:29:17.135Z,60.70
2019-05-05T22:31:44.671Z,60.30
2019-05-05T22:34:14.617Z,60.10
2019-05-05T22:36:44.851Z,58.90
2019-05-05T22:39:16.447Z,60.50
2019-05-05T22:41:44.479Z,59.10
2019-05-05T22:44:13.925Z,60.60
2019-05-05T22:46:41.948Z,60.20
2019-05-05T22:49:11.984Z,60.20
2019-05-05T22:51:39.765Z,58.80
2019-05-05T22:54:07.645Z,59.50
2019-05-05T22:56:35.347Z,57.90
2019-05-05T22:59:04.361Z,58.50
2019-05-05T23:01:32.302Z,58.80
2019-05-05T23:04:07.417Z,57.80
2019-05-05T23:06:35.242Z,57.80
2019-05-05T23:09:04.192Z,57.90
2019-05-05T23:11:31.975Z,57.90
2019-05-05T23:14:17.922Z,58.00
2019-05-05T23:16:48.456Z,57.90
2019-05-05T23:19:16.233Z,59.10
2019-05-05T23:21:57.433Z,59.30
2019-05-05T23:24:31.685Z,59.40
2019-05-05T23:26:59.442Z,59.50
2019-05-05T23:29:27.194Z,59.90
2019-05-05T23:31:55.164Z,59.80
2019-05-05T23:34:24.226Z,60.10
2019-05-05T23:36:53.573Z,60.90
2019-05-05T23:39:21.525Z,61.00
2019-05-05T23:41:49.297Z,61.50
2019-05-05T23:44:17.064Z,62.00
2019-05-05T23:46:44.796Z,61.90
2019-05-05T23:49:13.747Z,62.80
2019-05-05T23:51:43.994Z,63.40
2019-05-05T23:54:13.535Z,62.90
2019-05-05T23:56:44.153Z,62.80
2019-05-05T23:59:13.642Z,62.90
